Boynton Beach, FL (33472)

7:37 AM EST on December 05, 2016 (GMT -0500)
Venetian Isles | | Change Station

Elev 20 ft 26.55 °N, 80.18 °W | Updated 7 seconds ago

Scattered Clouds
Scattered Clouds
74.2 °F
Feels Like 73 °F
N
1.0
Wind Variable Wind from SE
Gusts 1.0 mph

Today
High -- | Low -- °F
--% Chance of Precip.
Yesterday
High -- | Low -- °F
Precip. -- in
Pressure 30.03 in
Visibility 10.0 miles
Clouds Few 1900 ft
Few 2400 ft
Scattered Clouds 25000 ft
Heat Index 73 °F
Dew Point 70 °F
Humidity 86%
Rainfall 0.00 in
Snow Depth Not available.
6:55 AM 5:28 PM
Waxing Crescent, 31% visible
METAR KPBI 051153Z 14008KT 10SM FEW019 FEW024 SCT250 24/21 A3003 RMK AO2 SLP168 T02390211 10250 20239 53004
Pressure 30.03 in
Visibility 10.0 miles
Clouds Few 1900 ft
Few 2400 ft
Scattered Clouds 25000 ft
Heat Index 73 °F
Dew Point 70 °F
Humidity 86%
Rainfall 0.00 in
Snow Depth Not available.
6:55 AM 5:28 PM
Waxing Crescent, 31% visible
METAR KPBI 051153Z 14008KT 10SM FEW019 FEW024 SCT250 24/21 A3003 RMK AO2 SLP168 T02390211 10250 20239 53004

10-Day Weather Forecast

Almanac

Astronomy

Dec. 05, 2016 Rise Set
Actual Time
Civil Twilight
Nautical Twilight
Astronomical Twilight
Moon
Length of Visible Light
Length of Day
Tomorrow will be .
, % of the Moon is Illuminated

Today's Extremes

State Highs State Lows

Community

WunderPhotos

Upload Photos

1,955,777 photos uploaded!

WunderBlog® & News

Nearby

Air Quality

  Air Quality AQ Index Pollutant
Not available.

Snow Depth

Station Depth Elevation

Earthquake Activity

City Distance Mag. Time & Date
Minimum magnitude displayed is 2.5.

Coastal Water Temperatures

Place Temperature

Stations

Nearby Weather Stations

Station Location Temp. Windchill Dew Point Humidity Wind Precip. Elev Updated Type
                   

Watches & Warnings

There are currently no watches in effect.